Time;durP1;ratioP1;P1;durP2;ratioP2;P2;SDS_P1;SDS_P2;PMS_P1;PMS_P2;Temp;Humidity;BMP_temperature;BMP_pressure;BME280_temperature;BME280_humidity;BME280_pressure;Samples;Min_cycle;Max_cycle;Signal;HPM_P1;HPM_P2
2021/12/25 00:01:07;;;;;;;34.53;23.63;;;10.30;99.90;;;;;;4980890;28;20209;-23
2021/12/25 00:03:36;;;;;;;38.50;24.43;;;10.30;99.90;;;;;;4989359;28;20218;-23
2021/12/25 00:06:08;;;;;;;36.50;24.17;;;10.30;99.90;;;;;;4974172;28;20819;-23
2021/12/25 00:08:36;;;;;;;34.67;23.63;;;10.30;99.90;;;;;;4980870;28;20203;-23
2021/12/25 00:11:08;;;;;;;34.83;23.30;;;10.30;99.90;;;;;;4985881;28;20210;-24
2021/12/25 00:13:35;;;;;;;35.73;23.27;;;10.30;99.90;;;;;;4985773;28;20218;-23
2021/12/25 00:16:07;;;;;;;32.03;22.80;;;10.30;99.90;;;;;;4974088;28;20620;-23
2021/12/25 00:18:35;;;;;;;35.40;23.43;;;10.30;99.90;;;;;;4977761;28;20364;-23
2021/12/25 00:21:03;;;;;;;38.63;24.87;;;10.30;99.90;;;;;;4978661;28;20210;-23
2021/12/25 00:23:30;;;;;;;35.63;23.67;;;10.30;99.90;;;;;;4989445;28;20277;-24
2021/12/25 00:26:05;;;;;;;35.30;23.07;;;10.30;99.90;;;;;;4974165;28;20203;-23
2021/12/25 00:28:53;;;;;;;35.73;23.50;;;10.30;99.90;;;;;;4970755;28;20194;-23
2021/12/25 00:31:29;;;;;;;34.33;22.50;;;10.30;99.90;;;;;;4987405;28;20596;-23
2021/12/25 00:34:01;;;;;;;39.13;24.17;;;10.30;99.90;;;;;;4977032;28;20621;-23
2021/12/25 00:36:28;;;;;;;37.17;23.57;;;10.30;99.90;;;;;;4983676;28;20574;-23
2021/12/25 00:38:56;;;;;;;36.73;23.80;;;10.30;99.90;;;;;;4983267;28;20655;-23
2021/12/25 00:41:24;;;;;;;38.57;23.97;;;10.30;99.90;;;;;;4969442;28;20492;-23
2021/12/25 00:43:53;;;;;;;33.63;23.53;;;10.30;99.90;;;;;;4969453;28;20233;-23
2021/12/25 00:46:20;;;;;;;36.57;22.83;;;10.30;99.90;;;;;;4978523;28;20211;-23
2021/12/25 00:48:50;;;;;;;35.93;22.70;;;10.30;99.90;;;;;;4970467;28;20825;-23
2021/12/25 00:51:18;;;;;;;35.53;22.80;;;10.30;99.90;;;;;;4975485;28;20591;-24
2021/12/25 00:53:45;;;;;;;38.20;23.30;;;10.30;99.90;;;;;;4969807;28;20207;-23
2021/12/25 00:56:12;;;;;;;34.30;22.87;;;10.30;99.90;;;;;;4979768;28;20626;-23
2021/12/25 00:58:40;;;;;;;32.93;22.47;;;10.30;99.90;;;;;;4970342;28;20306;-23
2021/12/25 01:01:07;;;;;;;35.33;22.73;;;10.30;99.90;;;;;;4975817;28;20205;-23
2021/12/25 01:03:34;;;;;;;34.17;22.50;;;10.30;99.90;;;;;;4987450;28;20218;-23
2021/12/25 01:06:04;;;;;;;33.40;22.63;;;10.30;99.90;;;;;;4977976;28;20214;-24
2021/12/25 01:08:32;;;;;;;33.37;23.20;;;10.30;99.90;;;;;;4983523;28;20629;-24
2021/12/25 01:10:59;;;;;;;35.90;23.50;;;10.30;99.90;;;;;;4984396;28;20216;-24
2021/12/25 01:13:31;;;;;;;35.30;23.10;;;10.30;99.90;;;;;;4978333;28;20274;-24
2021/12/25 01:29:44;;;;;;;35.73;23.17;;;10.30;99.90;;;;;;4978533;28;20195;-24
2021/12/25 01:37:45;;;;;;;37.10;24.80;;;10.20;99.90;;;;;;4973103;28;20207;-24
2021/12/25 01:48:35;;;;;;;37.07;23.60;;;10.20;99.90;;;;;;4982078;28;20215;-24
2021/12/25 01:51:02;;;;;;;38.23;23.77;;;10.20;99.90;;;;;;4972508;28;20774;-24
2021/12/25 01:53:30;;;;;;;37.20;23.97;;;10.20;99.90;;;;;;4982933;28;20724;-24
2021/12/25 01:56:01;;;;;;;35.30;23.63;;;10.10;99.90;;;;;;4974989;28;20206;-24
2021/12/25 01:58:28;;;;;;;38.40;24.73;;;10.10;99.90;;;;;;4972281;28;20211;-24
2021/12/25 02:00:58;;;;;;;39.17;24.27;;;10.10;99.90;;;;;;4971813;28;20634;-24
2021/12/25 02:03:30;;;;;;;34.37;23.63;;;10.10;99.90;;;;;;4983657;28;20223;-24
2021/12/25 02:05:58;;;;;;;37.53;23.47;;;10.10;99.90;;;;;;4985934;28;20198;-24
2021/12/25 02:08:28;;;;;;;34.80;23.13;;;10.10;99.90;;;;;;4982729;28;20210;-24
2021/12/25 02:10:57;;;;;;;34.83;22.67;;;10.10;99.90;;;;;;4982078;28;20198;-24
2021/12/25 02:13:24;;;;;;;36.33;24.07;;;10.10;99.90;;;;;;4982506;28;20199;-24
2021/12/25 02:15:54;;;;;;;37.30;23.60;;;10.10;99.90;;;;;;4972896;28;20568;-24
2021/12/25 02:18:28;;;;;;;37.73;23.60;;;10.10;99.90;;;;;;4976570;28;20198;-25
2021/12/25 02:21:08;;;;;;;35.33;23.20;;;10.10;99.90;;;;;;4973646;28;20213;-24
2021/12/25 02:23:36;;;;;;;34.63;22.77;;;10.10;99.90;;;;;;4981299;28;20539;-24
2021/12/25 02:26:04;;;;;;;34.43;23.27;;;10.10;99.90;;;;;;4985488;28;20206;-24
2021/12/25 02:28:34;;;;;;;34.90;23.53;;;10.10;99.90;;;;;;4980836;28;20199;-24
2021/12/25 02:31:08;;;;;;;34.70;22.93;;;10.10;99.90;;;;;;4971466;28;20207;-24
2021/12/25 02:33:36;;;;;;;36.77;23.90;;;10.10;99.90;;;;;;4968660;28;20210;-24
2021/12/25 02:36:11;;;;;;;34.57;23.27;;;10.10;99.90;;;;;;4977465;28;20665;-24
2021/12/25 02:38:39;;;;;;;34.07;23.60;;;10.10;99.90;;;;;;4970310;28;20206;-24
2021/12/25 02:41:06;;;;;;;34.27;22.47;;;10.10;99.90;;;;;;4967789;28;20520;-24
2021/12/25 02:43:34;;;;;;;34.40;22.93;;;10.10;99.90;;;;;;4985455;28;20237;-24
2021/12/25 02:46:03;;;;;;;32.57;22.53;;;10.10;99.90;;;;;;4979081;28;20241;-24
2021/12/25 02:48:37;;;;;;;33.63;23.20;;;10.10;99.90;;;;;;4978588;28;20293;-24
2021/12/25 02:51:07;;;;;;;32.93;21.93;;;10.10;99.90;;;;;;4977744;28;20331;-24
2021/12/25 02:53:35;;;;;;;31.73;22.00;;;10.10;99.90;;;;;;4982474;28;20234;-24
2021/12/25 02:56:03;;;;;;;30.60;20.87;;;10.10;99.90;;;;;;4987478;28;20209;-24
2021/12/25 02:58:32;;;;;;;30.63;20.83;;;10.10;99.90;;;;;;4979514;28;20216;-24
2021/12/25 03:01:06;;;;;;;29.50;20.40;;;10.10;99.90;;;;;;4988934;28;20301;-24
2021/12/25 03:03:34;;;;;;;25.77;19.13;;;10.10;99.90;;;;;;4971876;28;20596;-24
2021/12/25 03:06:07;;;;;;;25.77;18.50;;;10.10;99.90;;;;;;4968256;28;21033;-24
2021/12/25 03:08:35;;;;;;;24.53;17.93;;;10.10;99.90;;;;;;4968723;28;20195;-24
2021/12/25 03:11:06;;;;;;;24.67;18.60;;;10.10;99.90;;;;;;4968236;28;20686;-24
2021/12/25 03:13:56;;;;;;;22.63;17.53;;;10.10;99.90;;;;;;4974548;28;20213;-24
2021/12/25 03:16:23;;;;;;;22.27;16.83;;;10.10;99.90;;;;;;4982659;28;20295;-24
2021/12/25 03:18:54;;;;;;;22.40;17.10;;;10.10;99.90;;;;;;4978767;28;20218;-24
2021/12/25 03:21:22;;;;;;;22.17;17.37;;;10.10;99.90;;;;;;4977771;28;20710;-24
2021/12/25 03:23:52;;;;;;;18.00;14.93;;;10.10;99.90;;;;;;4967761;28;20229;-24
2021/12/25 03:26:20;;;;;;;18.03;15.00;;;10.10;99.90;;;;;;4980586;28;20298;-24
2021/12/25 03:28:50;;;;;;;18.17;14.50;;;10.10;99.90;;;;;;4978495;28;21084;-23
2021/12/25 03:31:20;;;;;;;17.67;14.63;;;10.10;99.90;;;;;;4977816;28;20199;-22
2021/12/25 03:33:54;;;;;;;15.60;13.30;;;10.10;99.90;;;;;;4973503;28;20209;-22
2021/12/25 03:36:22;;;;;;;16.03;13.77;;;10.00;99.90;;;;;;4980386;28;20217;-22
2021/12/25 03:38:52;;;;;;;15.60;13.20;;;10.10;99.90;;;;;;4973447;28;20210;-23
2021/12/25 03:41:20;;;;;;;15.17;11.93;;;10.00;99.90;;;;;;4972797;28;20215;-23
2021/12/25 03:43:48;;;;;;;13.40;11.40;;;10.00;99.90;;;;;;4988141;28;20222;-22
2021/12/25 03:46:17;;;;;;;13.43;11.60;;;10.00;99.90;;;;;;4978105;28;20213;-23
2021/12/25 03:59:46;;;;;;;8.03;7.20;;;10.00;99.90;;;;;;4971610;28;20218;-22
2021/12/25 04:02:20;;;;;;;7.47;6.60;;;10.00;99.90;;;;;;4986701;28;20202;-23
2021/12/25 04:04:49;;;;;;;7.93;6.90;;;9.90;99.90;;;;;;4999284;28;20257;-23
2021/12/25 04:07:46;;;;;;;8.13;7.20;;;9.90;99.90;;;;;;4991410;28;20198;-22
2021/12/25 04:10:14;;;;;;;8.87;7.50;;;9.90;99.90;;;;;;4981751;28;20248;-22
2021/12/25 04:12:43;;;;;;;8.33;7.47;;;9.80;99.90;;;;;;4975947;28;20237;-22
2021/12/25 04:15:13;;;;;;;11.57;9.10;;;9.80;99.90;;;;;;4975488;28;20302;-22
2021/12/25 04:17:40;;;;;;;11.30;9.20;;;9.80;99.90;;;;;;4989497;28;20203;-22
2021/12/25 04:20:08;;;;;;;11.10;9.70;;;9.70;99.90;;;;;;4971739;28;20658;-22
2021/12/25 04:22:47;;;;;;;13.23;10.70;;;9.70;99.90;;;;;;4979564;28;20237;-22
2021/12/25 04:25:23;;;;;;;12.17;10.70;;;9.70;99.90;;;;;;4970802;28;20285;-22
2021/12/25 04:27:55;;;;;;;13.23;11.43;;;9.70;99.90;;;;;;4991971;28;20232;-23
2021/12/25 05:03:31;;;;;;;15.97;13.53;;;9.30;99.90;;;;;;4970320;28;20594;-23
2021/12/25 05:06:00;;;;;;;16.20;13.80;;;9.30;99.90;;;;;;4975540;28;20206;-23
2021/12/25 05:08:27;;;;;;;16.70;13.97;;;9.20;99.90;;;;;;4970048;28;20207;-23
2021/12/25 05:10:54;;;;;;;17.37;13.80;;;9.20;99.90;;;;;;4977834;28;20209;-23
2021/12/25 05:13:21;;;;;;;18.93;15.07;;;9.20;99.90;;;;;;4974988;28;20252;-23
2021/12/25 05:15:50;;;;;;;16.83;13.63;;;9.20;99.90;;;;;;4978419;28;20541;-23
2021/12/25 05:18:19;;;;;;;15.77;13.23;;;9.20;99.90;;;;;;4970071;28;20212;-23
2021/12/25 05:20:46;;;;;;;18.33;14.10;;;9.20;99.90;;;;;;4978545;28;20225;-22
2021/12/25 05:23:14;;;;;;;16.80;13.77;;;9.10;99.90;;;;;;4983467;28;20243;-23
2021/12/25 05:25:41;;;;;;;16.17;13.27;;;9.10;99.90;;;;;;4975247;28;20234;-23
2021/12/25 05:28:12;;;;;;;18.03;13.73;;;9.10;99.90;;;;;;4970487;28;20754;-23
2021/12/25 05:30:40;;;;;;;16.93;13.30;;;9.00;99.90;;;;;;4976844;28;20222;-23
2021/12/25 05:33:10;;;;;;;17.53;13.97;;;9.00;99.90;;;;;;4970506;28;20202;-23
2021/12/25 05:35:39;;;;;;;16.80;13.43;;;9.00;99.90;;;;;;4985021;28;20214;-23
2021/12/25 05:38:13;;;;;;;14.77;12.07;;;9.00;99.90;;;;;;4988681;28;20751;-23
2021/12/25 05:40:46;;;;;;;15.10;12.43;;;8.90;99.90;;;;;;4967288;28;20225;-23
2021/12/25 05:43:14;;;;;;;16.77;13.03;;;9.00;99.90;;;;;;4969461;28;20611;-23
2021/12/25 05:45:42;;;;;;;14.73;12.40;;;8.90;99.90;;;;;;4973235;28;20230;-23
2021/12/25 05:48:10;;;;;;;15.73;12.20;;;8.90;99.90;;;;;;4973215;28;20207;-23
2021/12/25 05:50:42;;;;;;;14.63;11.80;;;8.90;99.90;;;;;;4986754;28;20214;-23
2021/12/25 05:53:09;;;;;;;14.60;11.63;;;8.90;99.90;;;;;;4983211;28;20385;-23
2021/12/25 05:55:37;;;;;;;12.13;10.03;;;8.80;99.90;;;;;;4983755;28;20325;-23
2021/12/25 05:58:07;;;;;;;11.60;10.33;;;8.80;99.90;;;;;;4988051;28;20214;-23
2021/12/25 06:00:38;;;;;;;11.73;10.20;;;8.80;99.90;;;;;;4974952;28;20812;-23
2021/12/25 06:03:06;;;;;;;10.60;9.50;;;8.80;99.90;;;;;;4991724;28;20204;-23
2021/12/25 06:05:33;;;;;;;10.37;9.33;;;8.70;99.90;;;;;;4977570;28;20230;-23
2021/12/25 06:08:00;;;;;;;10.97;9.10;;;8.70;99.90;;;;;;4989432;28;20278;-23
2021/12/25 06:10:30;;;;;;;8.90;8.00;;;8.70;99.90;;;;;;4981356;28;20195;-23
2021/12/25 06:13:01;;;;;;;10.40;8.97;;;8.60;99.90;;;;;;4984332;28;20198;-23
2021/12/25 06:15:28;;;;;;;9.70;8.70;;;8.60;99.90;;;;;;4984784;28;20232;-23
2021/12/25 06:17:58;;;;;;;9.37;8.37;;;8.50;99.90;;;;;;4977256;28;20209;-23
2021/12/25 06:20:25;;;;;;;9.83;8.83;;;8.50;99.90;;;;;;4978830;28;20372;-23
2021/12/25 06:22:55;;;;;;;10.00;8.97;;;8.50;99.90;;;;;;4975313;28;20309;-23
2021/12/25 06:25:22;;;;;;;9.80;8.73;;;8.40;99.90;;;;;;4978888;28;20584;-23
2021/12/25 06:27:52;;;;;;;9.70;8.70;;;8.40;99.90;;;;;;4975688;28;20205;-23
2021/12/25 06:30:20;;;;;;;9.57;8.57;;;8.40;99.90;;;;;;4979356;28;20205;-24
2021/12/25 06:32:47;;;;;;;9.50;8.17;;;8.40;99.90;;;;;;4975662;28;20293;-23
2021/12/25 06:35:14;;;;;;;9.87;8.83;;;8.40;99.90;;;;;;4971743;28;20234;-23
2021/12/25 06:37:46;;;;;;;8.90;7.67;;;8.40;99.90;;;;;;4968991;28;20203;-23
2021/12/25 06:40:19;;;;;;;8.00;7.20;;;8.40;99.90;;;;;;4970016;28;20226;-24
2021/12/25 06:42:48;;;;;;;9.20;7.47;;;8.30;99.90;;;;;;4978127;28;20217;-23
2021/12/25 06:45:16;;;;;;;9.43;7.30;;;8.30;99.90;;;;;;4981689;28;20307;-23
2021/12/25 06:47:43;;;;;;;8.93;7.53;;;8.30;99.90;;;;;;4973489;28;20211;-23
2021/12/25 06:50:13;;;;;;;8.20;7.13;;;8.20;99.90;;;;;;4972656;28;20222;-23
2021/12/25 06:52:45;;;;;;;8.90;7.33;;;8.20;99.90;;;;;;4968769;28;20271;-23
2021/12/25 06:55:13;;;;;;;9.37;8.00;;;8.10;99.90;;;;;;4969546;28;20215;-23
2021/12/25 06:57:53;;;;;;;7.97;7.17;;;8.10;99.90;;;;;;4969457;28;20298;-23
2021/12/25 07:00:21;;;;;;;8.57;7.27;;;8.00;99.90;;;;;;4977330;28;20743;-23
2021/12/25 07:02:49;;;;;;;8.50;7.27;;;8.00;99.90;;;;;;4984838;28;20264;-23
2021/12/25 07:05:17;;;;;;;8.10;6.83;;;7.90;99.90;;;;;;4973578;28;20334;-24
2021/12/25 07:07:51;;;;;;;8.70;7.30;;;7.90;99.90;;;;;;4981384;28;20749;-23
2021/12/25 07:10:19;;;;;;;7.33;6.57;;;7.80;99.90;;;;;;4977295;28;20198;-23
2021/12/25 07:12:52;;;;;;;7.63;6.37;;;7.80;99.90;;;;;;4978535;28;20199;-24
2021/12/25 07:15:20;;;;;;;8.33;7.40;;;7.80;99.90;;;;;;4980392;28;20962;-23
2021/12/25 07:17:47;;;;;;;8.20;7.40;;;7.70;99.90;;;;;;4974209;28;20561;-24
2021/12/25 07:20:14;;;;;;;9.10;7.23;;;7.70;99.90;;;;;;4974318;28;20203;-23
2021/12/25 07:22:41;;;;;;;7.77;6.97;;;7.70;99.90;;;;;;4974581;28;20211;-24
2021/12/25 07:25:09;;;;;;;8.90;7.63;;;7.70;99.90;;;;;;4981378;28;20226;-24
2021/12/25 07:27:36;;;;;;;8.23;7.43;;;7.60;99.90;;;;;;4979361;28;20293;-23
2021/12/25 07:30:08;;;;;;;9.60;7.70;;;7.60;99.90;;;;;;4972362;28;20209;-24
2021/12/25 07:32:37;;;;;;;8.70;7.73;;;7.60;99.90;;;;;;4976101;28;20214;-23
2021/12/25 07:35:05;;;;;;;9.23;8.07;;;7.50;99.90;;;;;;4976731;28;20222;-24
2021/12/25 07:37:34;;;;;;;10.10;8.23;;;7.50;99.90;;;;;;5002019;28;20205;-23
2021/12/25 07:40:03;;;;;;;8.50;7.70;;;7.40;99.90;;;;;;4978905;28;20206;-24
2021/12/25 07:42:30;;;;;;;10.03;8.67;;;7.40;99.90;;;;;;4978691;28;20221;-23
2021/12/25 07:45:03;;;;;;;9.57;8.57;;;7.40;99.90;;;;;;4982392;28;20230;-24
2021/12/25 07:47:33;;;;;;;9.40;8.40;;;7.30;99.90;;;;;;4980088;28;20570;-23
2021/12/25 07:50:01;;;;;;;9.87;8.87;;;7.30;99.90;;;;;;4983933;28;20213;-23
2021/12/25 07:52:34;;;;;;;9.87;8.87;;;7.30;99.90;;;;;;4978574;28;20933;-23
2021/12/25 07:55:04;;;;;;;11.93;9.73;;;7.20;99.90;;;;;;4973351;28;20246;-23
2021/12/25 07:57:31;;;;;;;9.67;8.63;;;7.20;99.90;;;;;;4981720;28;20320;-23
2021/12/25 07:59:58;;;;;;;10.33;9.23;;;7.20;99.90;;;;;;4972334;28;20240;-23
2021/12/25 08:02:25;;;;;;;11.50;10.30;;;7.10;99.90;;;;;;4979752;28;20604;-23
2021/12/25 08:04:53;;;;;;;10.93;9.77;;;7.10;99.90;;;;;;4989840;28;20214;-23
2021/12/25 08:07:20;;;;;;;11.63;10.43;;;7.10;99.90;;;;;;4971929;28;20214;-23
2021/12/25 08:09:48;;;;;;;11.93;10.73;;;7.00;99.90;;;;;;4972364;28;20685;-23
2021/12/25 08:12:15;;;;;;;13.10;11.37;;;7.00;99.90;;;;;;4970052;28;20195;-23
2021/12/25 08:14:42;;;;;;;12.23;10.47;;;6.90;99.90;;;;;;4971804;28;20586;-23
2021/12/25 08:17:11;;;;;;;12.60;11.30;;;6.90;99.90;;;;;;4970948;28;20206;-23
2021/12/25 08:19:39;;;;;;;12.40;11.13;;;6.80;99.90;;;;;;4976381;28;20799;-23
2021/12/25 08:22:06;;;;;;;12.97;11.60;;;6.80;99.90;;;;;;4988575;28;20200;-24
2021/12/25 08:24:36;;;;;;;12.70;11.40;;;6.80;99.90;;;;;;4970102;28;20234;-24
2021/12/25 08:27:05;;;;;;;12.43;11.13;;;6.80;99.90;;;;;;4969525;28;20207;-23
2021/12/25 08:29:36;;;;;;;12.50;11.20;;;6.70;99.90;;;;;;4970938;28;20201;-23
2021/12/25 08:32:09;;;;;;;12.73;11.43;;;6.70;99.90;;;;;;4969150;28;20222;-23
2021/12/25 08:34:40;;;;;;;14.40;12.43;;;6.70;99.90;;;;;;4971614;28;20258;-23
2021/12/25 08:37:08;;;;;;;13.90;12.40;;;6.70;99.90;;;;;;4986523;28;20199;-23
2021/12/25 08:39:35;;;;;;;14.20;12.70;;;6.70;99.90;;;;;;4970716;28;20302;-23
2021/12/25 08:42:05;;;;;;;15.17;13.60;;;6.70;99.90;;;;;;4970061;28;20282;-23
2021/12/25 08:44:54;;;;;;;13.87;12.47;;;6.60;99.90;;;;;;4972321;28;20199;-24
2021/12/25 08:47:22;;;;;;;14.20;12.70;;;6.60;99.90;;;;;;4977692;28;22017;-23
2021/12/25 08:49:49;;;;;;;14.10;12.60;;;6.60;99.90;;;;;;4974181;28;20597;-23
2021/12/25 08:52:19;;;;;;;14.33;12.83;;;6.60;99.90;;;;;;4971495;28;20231;-23
2021/12/25 08:54:49;;;;;;;15.43;13.83;;;6.50;99.90;;;;;;4977753;28;20273;-23
2021/12/25 08:57:21;;;;;;;15.30;13.13;;;6.50;99.90;;;;;;4978341;28;20714;-23
2021/12/25 08:59:53;;;;;;;14.97;13.37;;;6.50;99.90;;;;;;4982814;28;20277;-23
2021/12/25 09:02:22;;;;;;;15.17;13.33;;;6.50;99.90;;;;;;4979080;28;20292;-23
2021/12/25 09:04:51;;;;;;;18.37;14.90;;;6.50;99.90;;;;;;4976889;28;20647;-24
2021/12/25 09:07:21;;;;;;;15.27;13.67;;;6.50;99.90;;;;;;4982208;28;20209;-23
2021/12/25 09:09:48;;;;;;;15.03;13.20;;;6.50;99.90;;;;;;4970106;28;20199;-23
2021/12/25 09:12:17;;;;;;;15.83;14.20;;;6.50;99.90;;;;;;4972104;28;20206;-23
2021/12/25 09:14:44;;;;;;;15.33;13.70;;;6.50;99.90;;;;;;4980031;28;20211;-23
2021/12/25 09:17:14;;;;;;;15.77;14.10;;;6.50;99.90;;;;;;4989617;28;20665;-23
2021/12/25 09:19:42;;;;;;;15.30;13.70;;;6.50;99.90;;;;;;4971711;28;20206;-24
2021/12/25 09:22:14;;;;;;;16.23;14.53;;;6.40;99.90;;;;;;4969101;28;20664;-23
2021/12/25 09:24:43;;;;;;;15.60;14.00;;;6.40;99.90;;;;;;4973490;28;20974;-24
2021/12/25 09:27:11;;;;;;;15.43;13.83;;;6.40;99.90;;;;;;4968985;28;20279;-23
2021/12/25 09:29:38;;;;;;;16.10;14.47;;;6.40;99.90;;;;;;4984713;28;20202;-23
2021/12/25 09:32:05;;;;;;;17.03;15.23;;;6.40;99.90;;;;;;4989494;28;20205;-23
2021/12/25 09:34:33;;;;;;;17.10;15.27;;;6.40;99.90;;;;;;4980711;28;20215;-23
2021/12/25 09:37:00;;;;;;;16.47;14.63;;;6.40;99.90;;;;;;4970298;28;20838;-23
2021/12/25 09:39:27;;;;;;;17.47;15.67;;;6.40;99.90;;;;;;4970531;28;20203;-23
2021/12/25 09:41:57;;;;;;;18.57;16.57;;;6.40;99.90;;;;;;4967859;28;20207;-23
2021/12/25 09:44:26;;;;;;;17.80;15.90;;;6.30;99.90;;;;;;4985465;28;20210;-24
2021/12/25 09:46:53;;;;;;;18.60;16.53;;;6.30;99.90;;;;;;4989361;28;20472;-23
2021/12/25 09:49:20;;;;;;;19.47;17.03;;;6.30;99.90;;;;;;4972429;28;20702;-23
2021/12/25 09:51:48;;;;;;;19.83;17.73;;;6.20;99.90;;;;;;4974718;28;20506;-24
2021/12/25 09:54:18;;;;;;;21.63;18.20;;;6.20;99.90;;;;;;4971303;28;20199;-23
2021/12/25 09:56:48;;;;;;;20.60;17.43;;;6.20;99.90;;;;;;4969729;28;20207;-23
2021/12/25 09:59:18;;;;;;;20.73;18.23;;;6.20;99.90;;;;;;4974613;28;20211;-23
2021/12/25 10:01:53;;;;;;;21.80;18.13;;;6.10;99.90;;;;;;4993457;28;20207;-24
2021/12/25 10:04:40;;;;;;;20.87;17.03;;;6.10;99.90;;;;;;4972297;28;20768;-24
2021/12/25 10:07:29;;;;;;;21.97;18.70;;;6.10;99.90;;;;;;4977837;28;20657;-23
2021/12/25 10:10:17;;;;;;;21.37;18.50;;;6.10;99.90;;;;;;4977323;28;20207;-23
2021/12/25 10:12:48;;;;;;;22.97;18.93;;;6.10;99.90;;;;;;4978396;28;20206;-23
2021/12/25 10:15:19;;;;;;;24.10;20.10;;;6.10;99.90;;;;;;4975957;28;20206;-23
2021/12/25 10:17:50;;;;;;;24.17;19.97;;;6.00;99.90;;;;;;4976525;28;20221;-23
2021/12/25 10:20:23;;;;;;;21.80;19.40;;;6.00;99.90;;;;;;4984775;28;20202;-23
2021/12/25 10:23:02;;;;;;;22.47;19.30;;;6.00;99.90;;;;;;4972880;28;20302;-23
2021/12/25 10:25:38;;;;;;;25.63;21.83;;;6.00;99.90;;;;;;4978164;28;20305;-23
2021/12/25 10:28:07;;;;;;;26.60;21.83;;;6.00;99.90;;;;;;4969305;28;20206;-23
2021/12/25 10:31:09;;;;;;;24.87;21.47;;;6.00;99.90;;;;;;4971691;28;20209;-23
2021/12/25 10:33:44;;;;;;;24.73;21.23;;;6.00;99.90;;;;;;4977070;28;20206;-23
2021/12/25 10:36:31;;;;;;;25.37;21.77;;;6.00;99.90;;;;;;4985390;28;20240;-23
2021/12/25 10:39:05;;;;;;;26.80;22.43;;;6.00;99.90;;;;;;4985023;28;20256;-23
2021/12/25 10:41:38;;;;;;;26.27;22.00;;;6.00;99.90;;;;;;4968192;28;20302;-24
2021/12/25 10:44:21;;;;;;;24.67;21.40;;;5.90;99.90;;;;;;4973926;28;20265;-24
2021/12/25 10:47:06;;;;;;;26.43;21.87;;;6.00;99.90;;;;;;4983699;28;20602;-23
2021/12/25 10:49:42;;;;;;;24.70;21.67;;;6.00;99.90;;;;;;4980532;28;20289;-23
2021/12/25 10:52:13;;;;;;;24.87;21.63;;;6.00;99.90;;;;;;4986702;28;20222;-23
2021/12/25 10:54:53;;;;;;;29.73;23.37;;;6.00;99.90;;;;;;4977335;28;20213;-23
2021/12/25 10:57:50;;;;;;;27.50;23.27;;;6.00;99.90;;;;;;4970918;28;20190;-23
2021/12/25 11:00:20;;;;;;;29.90;23.30;;;6.00;99.90;;;;;;4978992;28;20585;-24
2021/12/25 11:02:59;;;;;;;29.40;23.87;;;6.00;99.90;;;;;;4983767;28;20273;-23
2021/12/25 11:05:33;;;;;;;28.23;23.53;;;5.90;99.90;;;;;;4977921;28;20631;-23
2021/12/25 11:08:03;;;;;;;30.23;24.73;;;5.90;99.90;;;;;;4969907;28;20205;-23
2021/12/25 11:10:31;;;;;;;29.47;23.43;;;5.90;99.90;;;;;;4972524;28;20313;-23
2021/12/25 11:12:59;;;;;;;31.40;25.20;;;5.90;99.90;;;;;;4981234;28;20582;-23
2021/12/25 11:15:32;;;;;;;28.90;24.10;;;5.90;99.90;;;;;;4973658;28;20211;-24
2021/12/25 11:18:07;;;;;;;26.83;22.67;;;5.90;99.90;;;;;;4985346;28;20729;-23
2021/12/25 11:20:37;;;;;;;28.67;24.23;;;5.90;99.90;;;;;;4983632;28;20214;-24
2021/12/25 11:23:08;;;;;;;30.03;24.93;;;5.90;99.90;;;;;;4979489;28;20757;-23
2021/12/25 11:25:37;;;;;;;32.50;25.07;;;5.80;99.90;;;;;;4970813;28;20219;-23
2021/12/25 11:28:10;;;;;;;29.53;25.20;;;5.80;99.90;;;;;;4975384;28;20222;-23
2021/12/25 11:30:44;;;;;;;29.60;23.80;;;5.90;99.90;;;;;;4972375;28;20198;-24
2021/12/25 11:33:12;;;;;;;28.57;23.97;;;5.90;99.90;;;;;;4980914;28;20722;-23
2021/12/25 11:35:46;;;;;;;30.93;25.13;;;5.80;99.90;;;;;;4982551;28;20231;-24
2021/12/25 11:38:14;;;;;;;32.03;26.23;;;5.80;99.90;;;;;;4976312;28;20281;-23
2021/12/25 11:40:50;;;;;;;33.00;25.87;;;5.80;99.90;;;;;;4967644;28;20620;-23
2021/12/25 11:43:43;;;;;;;31.13;25.83;;;5.80;99.90;;;;;;4970519;28;20234;-23
2021/12/25 11:46:12;;;;;;;31.30;26.40;;;5.80;99.90;;;;;;4971113;28;20227;-23
2021/12/25 11:48:45;;;;;;;33.33;27.20;;;5.70;99.90;;;;;;4982436;28;20610;-23
2021/12/25 11:51:32;;;;;;;33.40;27.03;;;5.70;99.90;;;;;;4982376;28;20220;-23
2021/12/25 11:56:43;;;;;;;32.73;26.20;;;5.70;99.90;;;;;;4977766;28;20222;-23
2021/12/25 11:59:19;;;;;;;34.07;27.43;;;5.60;99.90;;;;;;4980391;28;20209;-23
2021/12/25 12:01:49;;;;;;;33.57;26.67;;;5.60;99.90;;;;;;4981411;28;20209;-23
2021/12/25 12:04:25;;;;;;;32.87;26.60;;;5.60;99.90;;;;;;4975402;28;20219;-23
2021/12/25 12:06:56;;;;;;;32.90;26.57;;;5.60;99.90;;;;;;4974783;28;20229;-23
2021/12/25 12:09:32;;;;;;;31.97;26.07;;;5.60;99.90;;;;;;4984770;28;20207;-23
2021/12/25 12:12:04;;;;;;;33.87;27.33;;;5.60;99.90;;;;;;4979206;28;20244;-24
2021/12/25 12:14:33;;;;;;;32.77;27.20;;;5.60;99.90;;;;;;4973637;28;20210;-23
2021/12/25 12:17:03;;;;;;;32.83;27.90;;;5.60;99.90;;;;;;4984662;28;20549;-23
2021/12/25 12:19:35;;;;;;;32.13;26.40;;;5.60;99.90;;;;;;4985216;28;20202;-23
2021/12/25 12:22:14;;;;;;;37.00;29.57;;;5.60;99.90;;;;;;4980378;28;20203;-23
2021/12/25 12:27:57;;;;;;;37.33;30.07;;;5.60;99.90;;;;;;4971178;28;20640;-23
2021/12/25 12:30:40;;;;;;;32.87;27.43;;;5.60;99.90;;;;;;4979185;28;20592;-23
2021/12/25 12:33:10;;;;;;;35.43;29.97;;;5.60;99.90;;;;;;4980093;28;20582;-23
2021/12/25 12:35:39;;;;;;;38.63;30.60;;;5.60;99.90;;;;;;4979507;28;20205;-23
2021/12/25 12:41:27;;;;;;;39.87;31.60;;;5.60;99.90;;;;;;4979690;28;20732;-23
2021/12/25 12:43:59;;;;;;;42.30;32.53;;;5.50;99.90;;;;;;4971863;28;20207;-23
2021/12/25 12:46:48;;;;;;;41.77;33.73;;;5.50;99.90;;;;;;4972699;28;20664;-23
2021/12/25 12:49:20;;;;;;;41.60;32.33;;;5.40;99.90;;;;;;4975286;28;20211;-23
2021/12/25 12:52:09;;;;;;;42.57;33.33;;;5.40;99.90;;;;;;4974891;28;20237;-24
2021/12/25 12:54:39;;;;;;;42.10;33.40;;;5.40;99.90;;;;;;4978370;28;20210;-23
2021/12/25 12:57:09;;;;;;;41.23;32.60;;;5.40;99.90;;;;;;4973808;28;20229;-24
2021/12/25 12:59:51;;;;;;;43.03;33.87;;;5.30;99.90;;;;;;4977890;28;20210;-23
2021/12/25 13:02:21;;;;;;;40.40;32.27;;;5.40;99.90;;;;;;4977063;28;20301;-23
2021/12/25 13:04:52;;;;;;;40.27;33.60;;;5.40;99.90;;;;;;4975005;28;20207;-24
2021/12/25 13:07:21;;;;;;;42.97;32.87;;;5.40;99.90;;;;;;4976972;28;20222;-25
2021/12/25 13:10:04;;;;;;;45.63;34.87;;;5.40;99.90;;;;;;4983686;28;20313;-25
2021/12/25 13:12:44;;;;;;;41.37;32.70;;;5.40;99.90;;;;;;4978316;28;20254;-25
2021/12/25 13:15:32;;;;;;;46.03;34.47;;;5.30;99.90;;;;;;4967986;28;20692;-25
2021/12/25 13:18:03;;;;;;;45.00;33.97;;;5.30;99.90;;;;;;4976482;28;20337;-24
2021/12/25 13:20:39;;;;;;;46.27;34.57;;;5.30;99.90;;;;;;4976967;28;20576;-25
2021/12/25 13:23:17;;;;;;;41.20;32.43;;;5.30;99.90;;;;;;4971771;28;20211;-24
2021/12/25 13:25:58;;;;;;;42.80;34.07;;;5.30;99.90;;;;;;4982562;28;20229;-24
2021/12/25 13:28:28;;;;;;;40.73;32.53;;;5.20;99.90;;;;;;4977734;28;20286;-24
2021/12/25 13:31:02;;;;;;;42.00;33.40;;;5.20;99.90;;;;;;4977884;28;20212;-24
2021/12/25 13:33:34;;;;;;;46.37;35.67;;;5.20;99.90;;;;;;4978821;28;20748;-24
2021/12/25 13:36:06;;;;;;;42.20;32.67;;;5.20;99.90;;;;;;4988505;28;20206;-24
2021/12/25 13:38:45;;;;;;;45.07;34.10;;;5.10;99.90;;;;;;4984039;28;20664;-25
2021/12/25 13:41:15;;;;;;;48.80;34.90;;;5.20;99.90;;;;;;4988891;28;20643;-24
2021/12/25 13:43:42;;;;;;;48.40;35.73;;;5.20;99.90;;;;;;4974256;28;20306;-24
2021/12/25 13:46:09;;;;;;;47.90;34.87;;;5.20;99.90;;;;;;4988898;28;20279;-25
2021/12/25 13:48:39;;;;;;;46.50;35.40;;;5.10;99.90;;;;;;4980828;28;20210;-24
2021/12/25 13:51:07;;;;;;;47.20;35.40;;;5.20;99.90;;;;;;4978157;28;20272;-24
2021/12/25 13:53:34;;;;;;;44.60;34.43;;;5.20;99.90;;;;;;4975511;28;20609;-25
2021/12/25 13:56:09;;;;;;;44.03;33.03;;;5.20;99.90;;;;;;4981834;28;20305;-24
2021/12/25 13:58:36;;;;;;;43.70;33.47;;;5.20;99.90;;;;;;4986353;28;20205;-24
2021/12/25 14:01:06;;;;;;;42.90;33.73;;;5.10;99.90;;;;;;4980730;28;20228;-24
2021/12/25 14:03:34;;;;;;;43.83;34.27;;;5.10;99.90;;;;;;4975697;28;20207;-24
2021/12/25 14:06:04;;;;;;;44.60;34.33;;;5.10;99.90;;;;;;4975442;28;20625;-25
2021/12/25 14:08:34;;;;;;;44.20;33.27;;;5.10;99.90;;;;;;4976393;28;20210;-25
2021/12/25 14:11:04;;;;;;;42.37;34.07;;;5.00;99.90;;;;;;4982311;28;20207;-24
2021/12/25 14:13:35;;;;;;;45.63;34.33;;;5.00;99.90;;;;;;4974124;28;20289;-25
2021/12/25 14:16:03;;;;;;;44.93;33.70;;;5.00;99.90;;;;;;4976509;28;20758;-25
2021/12/25 14:18:34;;;;;;;44.70;33.33;;;5.00;99.90;;;;;;4978960;28;20206;-25